createdAt,value
2023-03-08T00:02:08.296Z,99.90
2023-03-08T00:12:08.080Z,99.90
2023-03-08T00:22:07.529Z,99.90
2023-03-08T00:32:06.539Z,99.90
2023-03-08T00:42:05.322Z,99.90
2023-03-08T00:52:04.378Z,99.90
2023-03-08T01:02:03.534Z,99.90
2023-03-08T01:12:03.430Z,99.90
2023-03-08T01:22:02.544Z,99.90
2023-03-08T01:32:01.484Z,99.90
2023-03-08T01:42:00.942Z,99.90
2023-03-08T01:52:01.686Z,99.90
2023-03-08T02:02:01.678Z,99.90
2023-03-08T02:12:00.942Z,99.90
2023-03-08T02:22:00.618Z,99.90
2023-03-08T02:31:59.517Z,99.90
2023-03-08T02:41:58.353Z,99.90
2023-03-08T02:51:57.497Z,99.90
2023-03-08T03:01:57.182Z,99.90
2023-03-08T03:11:57.235Z,99.90
2023-03-08T03:21:56.520Z,99.90
2023-03-08T03:31:55.805Z,99.90
2023-03-08T03:41:56.873Z,99.90
2023-03-08T03:51:57.488Z,99.90
2023-03-08T04:01:58.386Z,99.90
2023-03-08T04:11:59.789Z,99.90
2023-03-08T04:22:00.382Z,99.90
2023-03-08T04:32:01.784Z,99.90
2023-03-08T04:42:02.374Z,99.90
2023-03-08T04:52:02.129Z,99.90
2023-03-08T05:02:02.982Z,99.90
2023-03-08T05:12:04.392Z,99.90
2023-03-08T05:22:06.315Z,99.90
2023-03-08T05:32:06.488Z,99.90
2023-03-08T05:42:07.484Z,99.90
2023-03-08T05:52:07.268Z,99.90
2023-03-08T06:02:08.726Z,99.90
2023-03-08T06:12:08.145Z,99.90
2023-03-08T06:22:07.884Z,99.90
2023-03-08T06:32:07.738Z,99.90
2023-03-08T06:42:08.757Z,99.90
2023-03-08T06:52:07.719Z,99.90
2023-03-08T07:02:06.648Z,99.90
2023-03-08T07:12:07.779Z,99.90
2023-03-08T07:22:06.514Z,99.90
2023-03-08T07:32:05.633Z,99.90
2023-03-08T07:42:05.999Z,99.90
2023-03-08T07:52:05.745Z,99.90
2023-03-08T08:02:04.547Z,99.90
2023-03-08T08:12:03.591Z,99.90
2023-03-08T08:22:02.924Z,99.90
2023-03-08T08:32:01.678Z,99.90
2023-03-08T08:42:00.724Z,99.90
2023-03-08T08:51:59.526Z,99.90
2023-03-08T09:01:58.603Z,99.90
2023-03-08T09:11:57.821Z,99.90
2023-03-08T09:21:56.731Z,99.90
2023-03-08T09:31:57.126Z,99.90
2023-03-08T09:41:56.648Z,99.90
2023-03-08T09:51:55.918Z,99.90
2023-03-08T10:01:54.829Z,99.90
2023-03-08T10:11:53.562Z,99.70
2023-03-08T10:21:52.614Z,99.60
2023-03-08T10:31:51.657Z,99.40
2023-03-08T10:41:50.705Z,99.30
2023-03-08T10:51:49.554Z,99.00
2023-03-08T11:01:48.584Z,98.60
2023-03-08T11:11:47.699Z,98.10
2023-03-08T11:21:46.699Z,96.40
2023-03-08T11:31:45.788Z,96.00
2023-03-08T11:41:44.784Z,95.70
2023-03-08T11:51:43.811Z,95.00
2023-03-08T12:01:42.760Z,94.60
2023-03-08T12:11:41.722Z,95.20
2023-03-08T12:21:41.539Z,94.70
2023-03-08T12:31:40.976Z,94.60
2023-03-08T12:41:39.688Z,93.50
2023-03-08T12:51:38.774Z,92.80
2023-03-08T13:01:37.864Z,93.20
2023-03-08T13:11:36.695Z,93.60
2023-03-08T13:21:36.025Z,93.40
2023-03-08T13:31:34.701Z,93.90
2023-03-08T13:41:33.745Z,93.70
2023-03-08T13:51:32.778Z,93.70
2023-03-08T14:01:31.811Z,93.80
2023-03-08T14:11:30.890Z,94.00
2023-03-08T14:21:29.814Z,94.00
2023-03-08T14:31:28.914Z,94.20
2023-03-08T14:41:27.810Z,94.20
2023-03-08T14:51:26.887Z,94.60
2023-03-08T15:01:25.873Z,94.60
2023-03-08T15:11:24.942Z,94.70
2023-03-08T15:21:23.817Z,95.00
2023-03-08T15:31:22.924Z,95.10
2023-03-08T15:41:21.804Z,95.20
2023-03-08T15:51:20.769Z,95.50
2023-03-08T16:01:19.788Z,95.80
2023-03-08T16:11:20.721Z,96.00
2023-03-08T16:21:19.903Z,96.10
2023-03-08T16:31:18.857Z,96.20
2023-03-08T16:41:17.818Z,96.40
2023-03-08T16:51:16.959Z,96.70
2023-03-08T17:01:15.798Z,96.80
2023-03-08T17:11:14.958Z,97.00
2023-03-08T17:21:13.757Z,97.20
2023-03-08T17:31:12.880Z,97.20
2023-03-08T17:41:11.904Z,97.40
2023-03-08T17:51:11.183Z,97.60
2023-03-08T18:01:10.012Z,97.70
2023-03-08T18:11:08.822Z,97.90
2023-03-08T18:21:13.817Z,98.00
2023-03-08T18:31:09.069Z,98.10
2023-03-08T18:41:08.015Z,98.10
2023-03-08T18:51:06.823Z,98.10
2023-03-08T19:01:05.974Z,98.30
2023-03-08T19:11:05.005Z,98.30
2023-03-08T19:21:03.901Z,98.30
2023-03-08T19:31:03.930Z,98.30
2023-03-08T19:41:02.905Z,98.40
2023-03-08T19:51:02.039Z,98.60
2023-03-08T20:01:01.021Z,98.60
2023-03-08T20:10:59.847Z,98.70
2023-03-08T20:21:01.186Z,98.80
2023-03-08T20:31:00.035Z,98.80
2023-03-08T20:40:59.390Z,98.90
2023-03-08T20:50:59.355Z,99.10
2023-03-08T21:00:59.829Z,99.30
2023-03-08T21:10:59.061Z,99.30
2023-03-08T21:20:57.874Z,99.40
2023-03-08T21:30:56.947Z,99.30
2023-03-08T21:40:55.949Z,99.50
2023-03-08T21:50:54.825Z,99.80
2023-03-08T22:00:54.232Z,99.80
2023-03-08T22:10:52.955Z,99.90
2023-03-08T22:20:51.945Z,99.90
2023-03-08T22:30:50.900Z,99.90
2023-03-08T22:40:49.953Z,99.90
2023-03-08T22:50:52.513Z,99.90
2023-03-08T23:00:50.370Z,99.90
2023-03-08T23:10:49.029Z,99.90
2023-03-08T23:20:48.164Z,99.90
2023-03-08T23:30:47.049Z,99.90
2023-03-08T23:40:45.970Z,99.90
2023-03-08T23:50:45.010Z,99.90
